sensor_id;sensor_type;location;lat;lon;timestamp;P1;durP1;ratioP1;P2;durP2;ratioP2
3085;SDS011;52812;48.960;9.108;2022-09-09T00:04:18;3.37;;;2.60;;
3085;SDS011;52812;48.960;9.108;2022-09-09T00:09:22;5.23;;;2.90;;
3085;SDS011;52812;48.960;9.108;2022-09-09T00:12:01;3.57;;;2.20;;
3085;SDS011;52812;48.960;9.108;2022-09-09T00:17:38;4.20;;;2.50;;
3085;SDS011;52812;48.960;9.108;2022-09-09T00:20:16;4.57;;;3.00;;
3085;SDS011;52812;48.960;9.108;2022-09-09T00:22:49;3.60;;;2.53;;
3085;SDS011;52812;48.960;9.108;2022-09-09T00:25:27;6.73;;;2.87;;
3085;SDS011;52812;48.960;9.108;2022-09-09T00:27:59;4.23;;;2.60;;
3085;SDS011;52812;48.960;9.108;2022-09-09T00:30:25;2.80;;;2.40;;
3085;SDS011;52812;48.960;9.108;2022-09-09T00:33:00;2.60;;;2.40;;
3085;SDS011;52812;48.960;9.108;2022-09-09T00:35:34;3.10;;;2.50;;
3085;SDS011;52812;48.960;9.108;2022-09-09T00:38:10;3.40;;;2.50;;
3085;SDS011;52812;48.960;9.108;2022-09-09T00:43:25;2.67;;;2.43;;
3085;SDS011;52812;48.960;9.108;2022-09-09T00:51:33;6.03;;;2.70;;
3085;SDS011;52812;48.960;9.108;2022-09-09T00:57:00;9.07;;;2.57;;
3085;SDS011;52812;48.960;9.108;2022-09-09T00:59:48;4.10;;;2.90;;
3085;SDS011;52812;48.960;9.108;2022-09-09T01:04:53;4.90;;;2.40;;
3085;SDS011;52812;48.960;9.108;2022-09-09T01:07:19;3.80;;;2.73;;
3085;SDS011;52812;48.960;9.108;2022-09-09T01:09:53;5.50;;;2.60;;
3085;SDS011;52812;48.960;9.108;2022-09-09T01:12:26;3.13;;;2.43;;
3085;SDS011;52812;48.960;9.108;2022-09-09T01:15:26;3.20;;;2.30;;
3085;SDS011;52812;48.960;9.108;2022-09-09T01:18:04;4.63;;;2.27;;
3085;SDS011;52812;48.960;9.108;2022-09-09T01:28:34;5.90;;;2.60;;
3085;SDS011;52812;48.960;9.108;2022-09-09T01:31:02;2.87;;;2.57;;
3085;SDS011;52812;48.960;9.108;2022-09-09T01:33:31;3.83;;;2.60;;
3085;SDS011;52812;48.960;9.108;2022-09-09T01:35:59;5.83;;;2.97;;
3085;SDS011;52812;48.960;9.108;2022-09-09T01:38:29;4.17;;;2.53;;
3085;SDS011;52812;48.960;9.108;2022-09-09T01:40:57;4.10;;;2.53;;
3085;SDS011;52812;48.960;9.108;2022-09-09T01:43:23;3.73;;;2.50;;
3085;SDS011;52812;48.960;9.108;2022-09-09T01:45:54;5.33;;;2.50;;
3085;SDS011;52812;48.960;9.108;2022-09-09T01:48:21;2.80;;;2.50;;
3085;SDS011;52812;48.960;9.108;2022-09-09T01:50:48;3.13;;;2.17;;
3085;SDS011;52812;48.960;9.108;2022-09-09T01:53:14;4.87;;;2.77;;
3085;SDS011;52812;48.960;9.108;2022-09-09T01:55:44;2.63;;;2.43;;
3085;SDS011;52812;48.960;9.108;2022-09-09T02:03:32;3.30;;;2.33;;
3085;SDS011;52812;48.960;9.108;2022-09-09T02:08:32;2.57;;;2.37;;
3085;SDS011;52812;48.960;9.108;2022-09-09T02:11:14;3.30;;;2.63;;
3085;SDS011;52812;48.960;9.108;2022-09-09T02:13:45;3.50;;;2.83;;
3085;SDS011;52812;48.960;9.108;2022-09-09T02:21:28;5.33;;;2.97;;
3085;SDS011;52812;48.960;9.108;2022-09-09T02:23:55;4.00;;;2.60;;
3085;SDS011;52812;48.960;9.108;2022-09-09T02:26:23;4.67;;;2.53;;
3085;SDS011;52812;48.960;9.108;2022-09-09T02:28:50;4.03;;;2.70;;
3085;SDS011;52812;48.960;9.108;2022-09-09T02:31:20;3.40;;;3.00;;
3085;SDS011;52812;48.960;9.108;2022-09-09T02:33:53;6.70;;;3.10;;
3085;SDS011;52812;48.960;9.108;2022-09-09T02:36:22;3.73;;;2.70;;
3085;SDS011;52812;48.960;9.108;2022-09-09T02:38:50;3.50;;;3.00;;
3085;SDS011;52812;48.960;9.108;2022-09-09T02:41:35;2.93;;;2.73;;
3085;SDS011;52812;48.960;9.108;2022-09-09T02:44:14;3.20;;;2.80;;
3085;SDS011;52812;48.960;9.108;2022-09-09T02:49:41;3.70;;;2.90;;
3085;SDS011;52812;48.960;9.108;2022-09-09T02:55:12;5.70;;;2.93;;
3085;SDS011;52812;48.960;9.108;2022-09-09T02:58:01;6.93;;;2.97;;
3085;SDS011;52812;48.960;9.108;2022-09-09T03:00:31;5.83;;;3.00;;
3085;SDS011;52812;48.960;9.108;2022-09-09T03:02:57;4.60;;;2.80;;
3085;SDS011;52812;48.960;9.108;2022-09-09T03:05:23;4.10;;;2.70;;
3085;SDS011;52812;48.960;9.108;2022-09-09T03:07:49;3.80;;;3.00;;
3085;SDS011;52812;48.960;9.108;2022-09-09T03:10:15;3.83;;;2.93;;
3085;SDS011;52812;48.960;9.108;2022-09-09T03:12:42;5.77;;;3.10;;
3085;SDS011;52812;48.960;9.108;2022-09-09T03:15:08;5.97;;;2.80;;
3085;SDS011;52812;48.960;9.108;2022-09-09T03:17:35;3.53;;;2.70;;
3085;SDS011;52812;48.960;9.108;2022-09-09T03:20:02;4.70;;;2.70;;
3085;SDS011;52812;48.960;9.108;2022-09-09T03:22:28;4.17;;;2.80;;
3085;SDS011;52812;48.960;9.108;2022-09-09T03:24:54;4.10;;;2.80;;
3085;SDS011;52812;48.960;9.108;2022-09-09T03:27:19;4.30;;;2.60;;
3085;SDS011;52812;48.960;9.108;2022-09-09T03:29:45;4.83;;;2.90;;
3085;SDS011;52812;48.960;9.108;2022-09-09T03:32:12;2.83;;;2.53;;
3085;SDS011;52812;48.960;9.108;2022-09-09T03:34:38;4.83;;;2.80;;
3085;SDS011;52812;48.960;9.108;2022-09-09T03:37:06;4.07;;;2.77;;
3085;SDS011;52812;48.960;9.108;2022-09-09T03:39:32;4.80;;;3.00;;
3085;SDS011;52812;48.960;9.108;2022-09-09T03:41:57;4.00;;;2.80;;
3085;SDS011;52812;48.960;9.108;2022-09-09T03:44:23;3.70;;;2.93;;
3085;SDS011;52812;48.960;9.108;2022-09-09T03:46:48;5.40;;;2.80;;
3085;SDS011;52812;48.960;9.108;2022-09-09T03:49:14;3.97;;;2.60;;
3085;SDS011;52812;48.960;9.108;2022-09-09T03:51:40;4.50;;;2.83;;
3085;SDS011;52812;48.960;9.108;2022-09-09T03:54:08;3.10;;;2.80;;
3085;SDS011;52812;48.960;9.108;2022-09-09T03:56:35;6.97;;;2.90;;
3085;SDS011;52812;48.960;9.108;2022-09-09T03:59:01;4.20;;;3.10;;
3085;SDS011;52812;48.960;9.108;2022-09-09T04:01:28;5.57;;;3.20;;
3085;SDS011;52812;48.960;9.108;2022-09-09T04:03:53;4.67;;;3.10;;
3085;SDS011;52812;48.960;9.108;2022-09-09T04:06:23;3.33;;;3.03;;
3085;SDS011;52812;48.960;9.108;2022-09-09T04:08:49;4.50;;;3.40;;
3085;SDS011;52812;48.960;9.108;2022-09-09T04:11:14;6.90;;;3.10;;
3085;SDS011;52812;48.960;9.108;2022-09-09T04:13:40;6.53;;;3.13;;
3085;SDS011;52812;48.960;9.108;2022-09-09T04:16:07;4.53;;;2.70;;
3085;SDS011;52812;48.960;9.108;2022-09-09T04:18:34;5.23;;;3.07;;
3085;SDS011;52812;48.960;9.108;2022-09-09T04:21:00;4.67;;;2.80;;
3085;SDS011;52812;48.960;9.108;2022-09-09T04:23:26;4.80;;;2.90;;
3085;SDS011;52812;48.960;9.108;2022-09-09T04:25:54;3.60;;;3.20;;
3085;SDS011;52812;48.960;9.108;2022-09-09T04:28:21;3.13;;;2.50;;
3085;SDS011;52812;48.960;9.108;2022-09-09T04:30:48;6.30;;;3.10;;
3085;SDS011;52812;48.960;9.108;2022-09-09T04:33:13;5.70;;;2.60;;
3085;SDS011;52812;48.960;9.108;2022-09-09T04:35:44;3.70;;;2.73;;
3085;SDS011;52812;48.960;9.108;2022-09-09T04:38:11;6.33;;;2.77;;
3085;SDS011;52812;48.960;9.108;2022-09-09T04:40:37;3.20;;;2.60;;
3085;SDS011;52812;48.960;9.108;2022-09-09T04:43:05;3.40;;;2.43;;
3085;SDS011;52812;48.960;9.108;2022-09-09T04:45:31;3.47;;;2.63;;
3085;SDS011;52812;48.960;9.108;2022-09-09T04:47:56;3.00;;;2.60;;
3085;SDS011;52812;48.960;9.108;2022-09-09T04:50:22;4.97;;;2.83;;
3085;SDS011;52812;48.960;9.108;2022-09-09T04:52:47;2.87;;;2.57;;
3085;SDS011;52812;48.960;9.108;2022-09-09T04:55:13;5.00;;;3.07;;
3085;SDS011;52812;48.960;9.108;2022-09-09T04:57:39;5.40;;;2.87;;
3085;SDS011;52812;48.960;9.108;2022-09-09T05:00:05;3.40;;;2.50;;
3085;SDS011;52812;48.960;9.108;2022-09-09T05:02:31;4.37;;;2.87;;
3085;SDS011;52812;48.960;9.108;2022-09-09T05:04:57;7.10;;;3.10;;
3085;SDS011;52812;48.960;9.108;2022-09-09T05:07:23;4.10;;;2.87;;
3085;SDS011;52812;48.960;9.108;2022-09-09T05:09:51;6.00;;;3.27;;
3085;SDS011;52812;48.960;9.108;2022-09-09T05:12:16;8.13;;;3.40;;
3085;SDS011;52812;48.960;9.108;2022-09-09T05:14:42;3.57;;;2.70;;
3085;SDS011;52812;48.960;9.108;2022-09-09T05:17:08;5.87;;;2.53;;
3085;SDS011;52812;48.960;9.108;2022-09-09T05:19:34;3.30;;;2.23;;
3085;SDS011;52812;48.960;9.108;2022-09-09T05:22:00;3.70;;;2.40;;
3085;SDS011;52812;48.960;9.108;2022-09-09T05:24:26;3.93;;;2.50;;
3085;SDS011;52812;48.960;9.108;2022-09-09T05:26:52;2.67;;;2.10;;
3085;SDS011;52812;48.960;9.108;2022-09-09T05:29:17;2.63;;;2.20;;
3085;SDS011;52812;48.960;9.108;2022-09-09T05:31:44;3.10;;;2.13;;
3085;SDS011;52812;48.960;9.108;2022-09-09T05:34:10;3.83;;;2.03;;
3085;SDS011;52812;48.960;9.108;2022-09-09T05:36:36;3.37;;;2.00;;
3085;SDS011;52812;48.960;9.108;2022-09-09T05:39:02;3.53;;;2.40;;
3085;SDS011;52812;48.960;9.108;2022-09-09T05:41:27;7.00;;;2.20;;
3085;SDS011;52812;48.960;9.108;2022-09-09T05:43:54;6.43;;;1.97;;
3085;SDS011;52812;48.960;9.108;2022-09-09T05:46:21;2.50;;;2.00;;
3085;SDS011;52812;48.960;9.108;2022-09-09T05:48:48;2.23;;;1.83;;
3085;SDS011;52812;48.960;9.108;2022-09-09T05:51:19;2.50;;;1.80;;
3085;SDS011;52812;48.960;9.108;2022-09-09T05:53:49;3.43;;;2.17;;
3085;SDS011;52812;48.960;9.108;2022-09-09T05:56:20;2.37;;;1.80;;
3085;SDS011;52812;48.960;9.108;2022-09-09T05:58:48;2.33;;;1.77;;
3085;SDS011;52812;48.960;9.108;2022-09-09T06:01:15;4.27;;;1.90;;
3085;SDS011;52812;48.960;9.108;2022-09-09T06:03:43;2.07;;;1.80;;
3085;SDS011;52812;48.960;9.108;2022-09-09T06:06:14;5.07;;;2.00;;
3085;SDS011;52812;48.960;9.108;2022-09-09T06:08:46;2.90;;;1.73;;
3085;SDS011;52812;48.960;9.108;2022-09-09T06:11:16;3.30;;;1.90;;
3085;SDS011;52812;48.960;9.108;2022-09-09T06:13:47;4.00;;;2.13;;
3085;SDS011;52812;48.960;9.108;2022-09-09T06:16:15;5.57;;;2.10;;
3085;SDS011;52812;48.960;9.108;2022-09-09T06:18:43;4.77;;;2.10;;
3085;SDS011;52812;48.960;9.108;2022-09-09T06:21:19;5.80;;;2.00;;
3085;SDS011;52812;48.960;9.108;2022-09-09T06:23:46;2.10;;;1.80;;
3085;SDS011;52812;48.960;9.108;2022-09-09T06:26:16;3.87;;;2.00;;
3085;SDS011;52812;48.960;9.108;2022-09-09T06:28:44;2.10;;;1.83;;
3085;SDS011;52812;48.960;9.108;2022-09-09T06:31:12;3.37;;;1.80;;
3085;SDS011;52812;48.960;9.108;2022-09-09T06:33:40;1.73;;;1.60;;
3085;SDS011;52812;48.960;9.108;2022-09-09T06:36:13;5.90;;;1.77;;
3085;SDS011;52812;48.960;9.108;2022-09-09T06:38:44;2.67;;;1.70;;
3085;SDS011;52812;48.960;9.108;2022-09-09T06:41:11;4.13;;;1.60;;
3085;SDS011;52812;48.960;9.108;2022-09-09T06:43:38;6.73;;;1.67;;
3085;SDS011;52812;48.960;9.108;2022-09-09T06:48:53;3.50;;;2.20;;
3085;SDS011;52812;48.960;9.108;2022-09-09T06:51:21;5.57;;;2.07;;
3085;SDS011;52812;48.960;9.108;2022-09-09T06:53:52;2.37;;;1.80;;
3085;SDS011;52812;48.960;9.108;2022-09-09T06:56:20;2.47;;;1.60;;
3085;SDS011;52812;48.960;9.108;2022-09-09T06:58:53;6.43;;;1.50;;
3085;SDS011;52812;48.960;9.108;2022-09-09T07:01:21;2.13;;;1.47;;
3085;SDS011;52812;48.960;9.108;2022-09-09T07:03:49;3.80;;;2.10;;
3085;SDS011;52812;48.960;9.108;2022-09-09T07:06:18;2.27;;;1.60;;
3085;SDS011;52812;48.960;9.108;2022-09-09T07:08:57;2.67;;;1.57;;
3085;SDS011;52812;48.960;9.108;2022-09-09T07:11:26;2.90;;;1.40;;
3085;SDS011;52812;48.960;9.108;2022-09-09T07:13:53;2.67;;;1.43;;
3085;SDS011;52812;48.960;9.108;2022-09-09T07:16:20;3.73;;;1.43;;
3085;SDS011;52812;48.960;9.108;2022-09-09T07:18:50;3.23;;;1.33;;
3085;SDS011;52812;48.960;9.108;2022-09-09T07:21:17;2.70;;;1.47;;
3085;SDS011;52812;48.960;9.108;2022-09-09T07:23:44;3.67;;;1.80;;
3085;SDS011;52812;48.960;9.108;2022-09-09T07:26:11;1.80;;;1.30;;
3085;SDS011;52812;48.960;9.108;2022-09-09T07:28:38;4.40;;;1.70;;
3085;SDS011;52812;48.960;9.108;2022-09-09T07:31:04;1.83;;;1.40;;
3085;SDS011;52812;48.960;9.108;2022-09-09T07:33:31;3.00;;;1.57;;
3085;SDS011;52812;48.960;9.108;2022-09-09T07:36:09;1.87;;;1.40;;
3085;SDS011;52812;48.960;9.108;2022-09-09T07:38:43;2.07;;;1.40;;
3085;SDS011;52812;48.960;9.108;2022-09-09T07:41:12;2.23;;;1.47;;
3085;SDS011;52812;48.960;9.108;2022-09-09T07:43:40;2.97;;;1.40;;
3085;SDS011;52812;48.960;9.108;2022-09-09T07:46:07;2.30;;;1.50;;
3085;SDS011;52812;48.960;9.108;2022-09-09T07:48:35;2.50;;;1.30;;
3085;SDS011;52812;48.960;9.108;2022-09-09T07:51:11;2.50;;;1.30;;
3085;SDS011;52812;48.960;9.108;2022-09-09T07:53:42;5.07;;;1.60;;
3085;SDS011;52812;48.960;9.108;2022-09-09T07:56:10;3.80;;;1.47;;
3085;SDS011;52812;48.960;9.108;2022-09-09T07:58:38;2.60;;;1.40;;
3085;SDS011;52812;48.960;9.108;2022-09-09T08:01:09;4.20;;;1.40;;
3085;SDS011;52812;48.960;9.108;2022-09-09T08:03:37;2.43;;;1.43;;
3085;SDS011;52812;48.960;9.108;2022-09-09T08:06:04;6.30;;;1.40;;
3085;SDS011;52812;48.960;9.108;2022-09-09T08:08:32;3.10;;;1.40;;
3085;SDS011;52812;48.960;9.108;2022-09-09T08:11:17;3.73;;;1.33;;
3085;SDS011;52812;48.960;9.108;2022-09-09T08:13:43;2.30;;;1.33;;
3085;SDS011;52812;48.960;9.108;2022-09-09T08:16:14;3.43;;;1.50;;
3085;SDS011;52812;48.960;9.108;2022-09-09T08:18:42;2.77;;;1.53;;
3085;SDS011;52812;48.960;9.108;2022-09-09T08:23:40;2.37;;;1.30;;
3085;SDS011;52812;48.960;9.108;2022-09-09T08:26:11;4.60;;;1.50;;
3085;SDS011;52812;48.960;9.108;2022-09-09T08:28:41;3.20;;;1.30;;
3085;SDS011;52812;48.960;9.108;2022-09-09T08:31:30;1.27;;;1.17;;
3085;SDS011;52812;48.960;9.108;2022-09-09T08:33:56;2.83;;;1.40;;
3085;SDS011;52812;48.960;9.108;2022-09-09T08:36:24;2.87;;;1.40;;
3085;SDS011;52812;48.960;9.108;2022-09-09T08:38:55;3.03;;;1.40;;
3085;SDS011;52812;48.960;9.108;2022-09-09T08:52:39;2.23;;;1.30;;
3085;SDS011;52812;48.960;9.108;2022-09-09T08:55:22;3.93;;;1.70;;
3085;SDS011;52812;48.960;9.108;2022-09-09T08:57:58;5.73;;;1.90;;
3085;SDS011;52812;48.960;9.108;2022-09-09T09:00:43;3.13;;;1.40;;
3085;SDS011;52812;48.960;9.108;2022-09-09T09:06:46;1.50;;;1.40;;
3085;SDS011;52812;48.960;9.108;2022-09-09T09:09:29;3.73;;;1.37;;
3085;SDS011;52812;48.960;9.108;2022-09-09T09:12:18;4.53;;;1.50;;
3085;SDS011;52812;48.960;9.108;2022-09-09T09:14:46;2.27;;;1.30;;
3085;SDS011;52812;48.960;9.108;2022-09-09T09:17:13;1.87;;;1.23;;
3085;SDS011;52812;48.960;9.108;2022-09-09T09:19:44;3.47;;;1.73;;
3085;SDS011;52812;48.960;9.108;2022-09-09T09:27:47;2.30;;;1.40;;
3085;SDS011;52812;48.960;9.108;2022-09-09T09:30:21;3.50;;;1.57;;
3085;SDS011;52812;48.960;9.108;2022-09-09T09:32:53;4.80;;;1.67;;
3085;SDS011;52812;48.960;9.108;2022-09-09T09:35:22;1.83;;;1.20;;
3085;SDS011;52812;48.960;9.108;2022-09-09T09:37:48;1.83;;;1.27;;
3085;SDS011;52812;48.960;9.108;2022-09-09T09:40:15;2.93;;;1.43;;
3085;SDS011;52812;48.960;9.108;2022-09-09T09:42:49;4.07;;;1.33;;
3085;SDS011;52812;48.960;9.108;2022-09-09T09:45:26;2.83;;;1.40;;
3085;SDS011;52812;48.960;9.108;2022-09-09T09:48:08;4.40;;;1.47;;
3085;SDS011;52812;48.960;9.108;2022-09-09T09:50:39;1.57;;;1.40;;
3085;SDS011;52812;48.960;9.108;2022-09-09T09:53:32;2.20;;;1.30;;
3085;SDS011;52812;48.960;9.108;2022-09-09T09:58:25;2.93;;;1.70;;
3085;SDS011;52812;48.960;9.108;2022-09-09T10:00:56;2.47;;;1.20;;
3085;SDS011;52812;48.960;9.108;2022-09-09T10:03:29;1.90;;;1.30;;
3085;SDS011;52812;48.960;9.108;2022-09-09T10:05:55;3.40;;;1.40;;
3085;SDS011;52812;48.960;9.108;2022-09-09T10:08:26;4.00;;;1.70;;
3085;SDS011;52812;48.960;9.108;2022-09-09T10:19:10;3.10;;;1.70;;
3085;SDS011;52812;48.960;9.108;2022-09-09T10:30:00;3.47;;;1.33;;
3085;SDS011;52812;48.960;9.108;2022-09-09T10:32:38;3.27;;;1.27;;
3085;SDS011;52812;48.960;9.108;2022-09-09T10:35:17;2.83;;;1.50;;
3085;SDS011;52812;48.960;9.108;2022-09-09T10:38:18;3.37;;;1.50;;
3085;SDS011;52812;48.960;9.108;2022-09-09T10:51:21;2.70;;;1.70;;
3085;SDS011;52812;48.960;9.108;2022-09-09T10:56:58;5.80;;;1.63;;
3085;SDS011;52812;48.960;9.108;2022-09-09T10:59:43;3.53;;;1.77;;
3085;SDS011;52812;48.960;9.108;2022-09-09T11:05:00;2.53;;;1.40;;
3085;SDS011;52812;48.960;9.108;2022-09-09T11:07:43;2.37;;;1.53;;
3085;SDS011;52812;48.960;9.108;2022-09-09T11:10:22;4.50;;;1.63;;
3085;SDS011;52812;48.960;9.108;2022-09-09T11:12:59;2.83;;;1.40;;
3085;SDS011;52812;48.960;9.108;2022-09-09T11:15:31;1.57;;;1.33;;
3085;SDS011;52812;48.960;9.108;2022-09-09T11:18:06;4.00;;;1.67;;
3085;SDS011;52812;48.960;9.108;2022-09-09T11:20:40;2.80;;;1.20;;
3085;SDS011;52812;48.960;9.108;2022-09-09T11:23:12;3.20;;;1.73;;
3085;SDS011;52812;48.960;9.108;2022-09-09T11:25:50;2.13;;;1.20;;
3085;SDS011;52812;48.960;9.108;2022-09-09T11:28:27;1.40;;;1.20;;
3085;SDS011;52812;48.960;9.108;2022-09-09T11:33:51;2.93;;;1.10;;
3085;SDS011;52812;48.960;9.108;2022-09-09T11:36:49;3.03;;;1.30;;
3085;SDS011;52812;48.960;9.108;2022-09-09T11:42:18;2.10;;;1.30;;
3085;SDS011;52812;48.960;9.108;2022-09-09T11:44:47;4.43;;;1.53;;
3085;SDS011;52812;48.960;9.108;2022-09-09T11:47:26;2.20;;;1.30;;
3085;SDS011;52812;48.960;9.108;2022-09-09T11:52:40;2.17;;;1.30;;
3085;SDS011;52812;48.960;9.108;2022-09-09T11:55:32;2.00;;;1.30;;
3085;SDS011;52812;48.960;9.108;2022-09-09T11:58:04;1.30;;;1.10;;
3085;SDS011;52812;48.960;9.108;2022-09-09T12:00:41;1.70;;;1.00;;
3085;SDS011;52812;48.960;9.108;2022-09-09T12:06:00;2.00;;;1.13;;
3085;SDS011;52812;48.960;9.108;2022-09-09T12:08:39;1.50;;;1.10;;
3085;SDS011;52812;48.960;9.108;2022-09-09T12:11:08;2.23;;;1.03;;
3085;SDS011;52812;48.960;9.108;2022-09-09T12:13:34;1.53;;;1.00;;
3085;SDS011;52812;48.960;9.108;2022-09-09T12:16:01;1.23;;;0.80;;
3085;SDS011;52812;48.960;9.108;2022-09-09T12:18:39;1.90;;;1.23;;
3085;SDS011;52812;48.960;9.108;2022-09-09T12:21:13;2.30;;;1.10;;
3085;SDS011;52812;48.960;9.108;2022-09-09T12:32:15;1.40;;;0.90;;
3085;SDS011;52812;48.960;9.108;2022-09-09T12:34:47;1.23;;;0.80;;
3085;SDS011;52812;48.960;9.108;2022-09-09T12:37:28;2.93;;;0.80;;
3085;SDS011;52812;48.960;9.108;2022-09-09T12:40:23;0.83;;;0.70;;
3085;SDS011;52812;48.960;9.108;2022-09-09T12:42:53;2.23;;;1.10;;
3085;SDS011;52812;48.960;9.108;2022-09-09T12:45:23;3.30;;;1.00;;
3085;SDS011;52812;48.960;9.108;2022-09-09T12:47:52;1.93;;;1.03;;
3085;SDS011;52812;48.960;9.108;2022-09-09T12:50:31;3.37;;;1.20;;
3085;SDS011;52812;48.960;9.108;2022-09-09T12:53:01;2.13;;;1.10;;
3085;SDS011;52812;48.960;9.108;2022-09-09T12:55:35;1.57;;;1.10;;
3085;SDS011;52812;48.960;9.108;2022-09-09T12:58:03;1.20;;;1.07;;
3085;SDS011;52812;48.960;9.108;2022-09-09T13:00:31;3.73;;;1.20;;
3085;SDS011;52812;48.960;9.108;2022-09-09T13:02:59;2.07;;;1.17;;
3085;SDS011;52812;48.960;9.108;2022-09-09T13:05:28;3.73;;;1.20;;
3085;SDS011;52812;48.960;9.108;2022-09-09T13:08:06;3.00;;;1.20;;
3085;SDS011;52812;48.960;9.108;2022-09-09T13:10:38;1.97;;;0.93;;
3085;SDS011;52812;48.960;9.108;2022-09-09T13:13:19;1.90;;;0.90;;
3085;SDS011;52812;48.960;9.108;2022-09-09T13:15:49;1.87;;;1.10;;
3085;SDS011;52812;48.960;9.108;2022-09-09T13:18:17;2.30;;;1.10;;
3085;SDS011;52812;48.960;9.108;2022-09-09T13:20:48;3.13;;;1.27;;
3085;SDS011;52812;48.960;9.108;2022-09-09T13:23:14;4.70;;;1.10;;
3085;SDS011;52812;48.960;9.108;2022-09-09T13:25:51;1.83;;;1.00;;
3085;SDS011;52812;48.960;9.108;2022-09-09T13:28:23;1.37;;;1.10;;
3085;SDS011;52812;48.960;9.108;2022-09-09T13:30:58;2.27;;;1.30;;
3085;SDS011;52812;48.960;9.108;2022-09-09T13:33:32;2.13;;;1.00;;
3085;SDS011;52812;48.960;9.108;2022-09-09T13:36:01;3.23;;;1.30;;
3085;SDS011;52812;48.960;9.108;2022-09-09T13:41:20;2.50;;;1.00;;
3085;SDS011;52812;48.960;9.108;2022-09-09T13:43:48;1.80;;;1.07;;
3085;SDS011;52812;48.960;9.108;2022-09-09T13:46:26;1.83;;;1.00;;
3085;SDS011;52812;48.960;9.108;2022-09-09T13:49:02;3.00;;;1.20;;
3085;SDS011;52812;48.960;9.108;2022-09-09T13:51:37;1.60;;;1.00;;
3085;SDS011;52812;48.960;9.108;2022-09-09T13:54:05;1.77;;;1.00;;
3085;SDS011;52812;48.960;9.108;2022-09-09T13:56:34;3.07;;;1.10;;
3085;SDS011;52812;48.960;9.108;2022-09-09T13:59:01;2.73;;;1.00;;
3085;SDS011;52812;48.960;9.108;2022-09-09T14:01:28;1.67;;;1.07;;
3085;SDS011;52812;48.960;9.108;2022-09-09T14:03:54;1.37;;;1.10;;
3085;SDS011;52812;48.960;9.108;2022-09-09T14:06:21;2.03;;;1.23;;
3085;SDS011;52812;48.960;9.108;2022-09-09T14:08:47;1.63;;;1.10;;
3085;SDS011;52812;48.960;9.108;2022-09-09T14:11:15;1.80;;;1.10;;
3085;SDS011;52812;48.960;9.108;2022-09-09T14:13:41;3.00;;;1.00;;
3085;SDS011;52812;48.960;9.108;2022-09-09T14:16:06;2.40;;;1.17;;
3085;SDS011;52812;48.960;9.108;2022-09-09T14:18:32;2.03;;;1.00;;
3085;SDS011;52812;48.960;9.108;2022-09-09T14:20:59;3.87;;;1.50;;
3085;SDS011;52812;48.960;9.108;2022-09-09T14:23:24;1.87;;;1.10;;
3085;SDS011;52812;48.960;9.108;2022-09-09T14:25:50;1.97;;;1.03;;
3085;SDS011;52812;48.960;9.108;2022-09-09T14:28:16;2.67;;;1.17;;
3085;SDS011;52812;48.960;9.108;2022-09-09T14:30:42;1.50;;;1.17;;
3085;SDS011;52812;48.960;9.108;2022-09-09T14:33:12;1.73;;;1.10;;
3085;SDS011;52812;48.960;9.108;2022-09-09T14:35:40;1.77;;;1.07;;
3085;SDS011;52812;48.960;9.108;2022-09-09T14:38:06;1.53;;;1.10;;
3085;SDS011;52812;48.960;9.108;2022-09-09T14:40:33;2.20;;;1.10;;
3085;SDS011;52812;48.960;9.108;2022-09-09T14:43:03;1.57;;;1.00;;
3085;SDS011;52812;48.960;9.108;2022-09-09T14:45:30;2.00;;;1.20;;
3085;SDS011;52812;48.960;9.108;2022-09-09T14:47:56;2.20;;;0.90;;
3085;SDS011;52812;48.960;9.108;2022-09-09T14:50:22;9.13;;;1.77;;
3085;SDS011;52812;48.960;9.108;2022-09-09T14:52:49;3.53;;;1.10;;
3085;SDS011;52812;48.960;9.108;2022-09-09T14:55:15;7.13;;;1.40;;
3085;SDS011;52812;48.960;9.108;2022-09-09T14:57:41;2.50;;;1.10;;
3085;SDS011;52812;48.960;9.108;2022-09-09T15:00:07;2.43;;;1.83;;
3085;SDS011;52812;48.960;9.108;2022-09-09T15:02:35;2.00;;;1.20;;
3085;SDS011;52812;48.960;9.108;2022-09-09T15:05:00;1.13;;;0.90;;
3085;SDS011;52812;48.960;9.108;2022-09-09T15:07:26;2.37;;;0.90;;
3085;SDS011;52812;48.960;9.108;2022-09-09T15:09:53;1.90;;;1.07;;
3085;SDS011;52812;48.960;9.108;2022-09-09T15:12:19;1.27;;;1.07;;
3085;SDS011;52812;48.960;9.108;2022-09-09T15:14:45;1.63;;;0.90;;
3085;SDS011;52812;48.960;9.108;2022-09-09T15:17:11;2.30;;;1.10;;
3085;SDS011;52812;48.960;9.108;2022-09-09T15:19:37;2.33;;;1.00;;
3085;SDS011;52812;48.960;9.108;2022-09-09T15:22:03;1.57;;;0.90;;
3085;SDS011;52812;48.960;9.108;2022-09-09T15:24:32;3.23;;;0.90;;
3085;SDS011;52812;48.960;9.108;2022-09-09T15:26:58;1.47;;;0.90;;
3085;SDS011;52812;48.960;9.108;2022-09-09T15:29:24;2.30;;;0.83;;
3085;SDS011;52812;48.960;9.108;2022-09-09T15:31:50;1.67;;;0.90;;
3085;SDS011;52812;48.960;9.108;2022-09-09T15:34:16;2.50;;;0.90;;
3085;SDS011;52812;48.960;9.108;2022-09-09T15:36:42;1.93;;;1.10;;
3085;SDS011;52812;48.960;9.108;2022-09-09T15:39:16;1.70;;;1.00;;
3085;SDS011;52812;48.960;9.108;2022-09-09T15:41:43;1.30;;;0.90;;
3085;SDS011;52812;48.960;9.108;2022-09-09T15:44:09;1.63;;;1.10;;
3085;SDS011;52812;48.960;9.108;2022-09-09T15:46:41;2.97;;;1.20;;
3085;SDS011;52812;48.960;9.108;2022-09-09T15:49:26;3.13;;;1.10;;
3085;SDS011;52812;48.960;9.108;2022-09-09T15:51:53;2.03;;;1.10;;
3085;SDS011;52812;48.960;9.108;2022-09-09T15:54:21;3.73;;;1.10;;
3085;SDS011;52812;48.960;9.108;2022-09-09T15:56:52;1.63;;;1.00;;
3085;SDS011;52812;48.960;9.108;2022-09-09T15:59:21;2.17;;;1.20;;
3085;SDS011;52812;48.960;9.108;2022-09-09T16:01:53;1.87;;;1.00;;
3085;SDS011;52812;48.960;9.108;2022-09-09T16:04:20;4.10;;;1.20;;
3085;SDS011;52812;48.960;9.108;2022-09-09T16:06:53;2.57;;;1.20;;
3085;SDS011;52812;48.960;9.108;2022-09-09T16:09:24;1.43;;;1.10;;
3085;SDS011;52812;48.960;9.108;2022-09-09T16:11:50;4.50;;;1.67;;
3085;SDS011;52812;48.960;9.108;2022-09-09T16:14:18;4.40;;;1.67;;
3085;SDS011;52812;48.960;9.108;2022-09-09T16:16:44;2.53;;;1.40;;
3085;SDS011;52812;48.960;9.108;2022-09-09T16:19:11;5.53;;;1.90;;
3085;SDS011;52812;48.960;9.108;2022-09-09T16:21:38;4.00;;;1.40;;
3085;SDS011;52812;48.960;9.108;2022-09-09T16:24:07;1.63;;;1.30;;
3085;SDS011;52812;48.960;9.108;2022-09-09T16:26:34;1.60;;;1.20;;
3085;SDS011;52812;48.960;9.108;2022-09-09T16:29:02;2.20;;;1.50;;
3085;SDS011;52812;48.960;9.108;2022-09-09T16:31:29;1.47;;;1.10;;
3085;SDS011;52812;48.960;9.108;2022-09-09T16:33:56;2.03;;;1.30;;
3085;SDS011;52812;48.960;9.108;2022-09-09T16:36:24;2.50;;;1.20;;
3085;SDS011;52812;48.960;9.108;2022-09-09T16:38:52;1.93;;;1.00;;
3085;SDS011;52812;48.960;9.108;2022-09-09T16:41:23;5.90;;;0.90;;
3085;SDS011;52812;48.960;9.108;2022-09-09T16:43:52;2.20;;;1.00;;
3085;SDS011;52812;48.960;9.108;2022-09-09T16:46:20;1.83;;;0.90;;
3085;SDS011;52812;48.960;9.108;2022-09-09T16:48:47;1.50;;;1.00;;
3085;SDS011;52812;48.960;9.108;2022-09-09T16:51:18;1.73;;;1.10;;
3085;SDS011;52812;48.960;9.108;2022-09-09T16:53:51;3.63;;;1.27;;
3085;SDS011;52812;48.960;9.108;2022-09-09T16:56:19;1.60;;;1.00;;
3085;SDS011;52812;48.960;9.108;2022-09-09T16:58:54;2.07;;;0.90;;
3085;SDS011;52812;48.960;9.108;2022-09-09T17:01:21;1.37;;;1.00;;
3085;SDS011;52812;48.960;9.108;2022-09-09T17:03:54;2.00;;;1.17;;
3085;SDS011;52812;48.960;9.108;2022-09-09T17:06:23;5.97;;;1.03;;
3085;SDS011;52812;48.960;9.108;2022-09-09T17:08:54;1.83;;;1.27;;
3085;SDS011;52812;48.960;9.108;2022-09-09T17:11:24;2.47;;;1.20;;
3085;SDS011;52812;48.960;9.108;2022-09-09T17:13:50;2.47;;;1.20;;
3085;SDS011;52812;48.960;9.108;2022-09-09T17:16:20;2.90;;;1.10;;
3085;SDS011;52812;48.960;9.108;2022-09-09T17:18:48;2.30;;;1.00;;
3085;SDS011;52812;48.960;9.108;2022-09-09T17:21:16;1.53;;;1.00;;
3085;SDS011;52812;48.960;9.108;2022-09-09T17:23:43;3.00;;;1.40;;
3085;SDS011;52812;48.960;9.108;2022-09-09T17:26:11;4.53;;;1.20;;
3085;SDS011;52812;48.960;9.108;2022-09-09T17:28:39;2.13;;;1.20;;
3085;SDS011;52812;48.960;9.108;2022-09-09T17:31:05;1.50;;;1.30;;